createdAt,value
2022-09-24T00:01:39.260Z,13.00
2022-09-24T00:04:10.130Z,12.90
2022-09-24T00:06:44.019Z,12.80
2022-09-24T00:09:16.410Z,12.70
2022-09-24T00:11:45.362Z,12.70
2022-09-24T00:14:13.280Z,12.70
2022-09-24T00:16:42.516Z,12.60
2022-09-24T00:19:11.591Z,12.60
2022-09-24T00:21:40.136Z,12.60
2022-09-24T00:24:10.828Z,12.60
2022-09-24T00:26:50.119Z,12.70
2022-09-24T00:29:21.566Z,12.70
2022-09-24T00:31:50.770Z,12.80
2022-09-24T00:34:19.191Z,12.80
2022-09-24T00:36:46.842Z,12.80
2022-09-24T00:39:15.367Z,12.90
2022-09-24T00:41:45.339Z,12.90
2022-09-24T00:44:40.820Z,12.90
2022-09-24T00:47:28.400Z,12.90
2022-09-24T00:50:26.404Z,12.90
2022-09-24T00:53:01.714Z,12.90
2022-09-24T00:55:30.154Z,12.90
2022-09-24T00:58:00.075Z,12.90
2022-09-24T01:00:27.780Z,12.90
2022-09-24T01:03:05.507Z,12.90
2022-09-24T01:05:33.271Z,12.80
2022-09-24T01:08:00.876Z,12.80
2022-09-24T01:11:05.434Z,12.90
2022-09-24T01:13:45.138Z,12.90
2022-09-24T01:16:27.057Z,12.90
2022-09-24T01:19:22.364Z,12.90
2022-09-24T01:21:56.293Z,13.00
2022-09-24T01:24:26.884Z,13.00
2022-09-24T01:27:02.946Z,13.00
2022-09-24T01:29:50.207Z,12.90
2022-09-24T01:32:32.151Z,12.80
2022-09-24T01:35:24.243Z,12.80
2022-09-24T01:37:57.467Z,12.80
2022-09-24T01:40:27.674Z,12.70
2022-09-24T01:42:58.282Z,12.70
2022-09-24T01:45:31.738Z,12.70
2022-09-24T01:48:02.263Z,12.70
2022-09-24T01:50:33.931Z,12.70
2022-09-24T01:53:20.119Z,12.60
2022-09-24T01:55:52.228Z,12.50
2022-09-24T01:58:27.932Z,12.50
2022-09-24T02:01:01.905Z,12.50
2022-09-24T02:03:34.489Z,12.40
2022-09-24T02:06:14.891Z,12.40
2022-09-24T02:08:46.996Z,12.40
2022-09-24T02:11:24.724Z,12.40
2022-09-24T02:14:13.077Z,12.50
2022-09-24T02:16:50.626Z,12.60
2022-09-24T02:19:25.119Z,12.50
2022-09-24T02:21:53.003Z,12.50
2022-09-24T02:24:24.773Z,12.50
2022-09-24T02:26:52.212Z,12.40
2022-09-24T02:29:19.539Z,12.40
2022-09-24T02:31:52.180Z,12.40
2022-09-24T02:34:33.512Z,12.40
2022-09-24T02:37:07.420Z,12.40
2022-09-24T02:39:36.242Z,12.40
2022-09-24T02:42:05.756Z,12.40
2022-09-24T02:44:34.168Z,12.40
2022-09-24T02:47:01.803Z,12.30
2022-09-24T02:49:29.249Z,12.40
2022-09-24T02:51:56.892Z,12.30
2022-09-24T02:54:27.974Z,12.40
2022-09-24T02:56:55.509Z,12.30
2022-09-24T02:59:23.232Z,12.40
2022-09-24T03:01:50.696Z,12.50
2022-09-24T03:04:18.018Z,12.50
2022-09-24T03:06:45.303Z,12.50
2022-09-24T03:09:13.383Z,12.50
2022-09-24T03:11:41.093Z,12.40
2022-09-24T03:14:08.539Z,12.40
2022-09-24T03:16:35.880Z,12.40
2022-09-24T03:19:03.258Z,12.40
2022-09-24T03:21:30.575Z,12.40
2022-09-24T03:23:58.042Z,12.40
2022-09-24T03:26:25.371Z,12.50
2022-09-24T03:28:53.150Z,12.40
2022-09-24T03:31:20.898Z,12.40
2022-09-24T03:33:49.940Z,12.40
2022-09-24T03:36:22.884Z,12.50
2022-09-24T03:38:56.259Z,12.40
2022-09-24T03:41:25.465Z,12.40
2022-09-24T03:43:53.028Z,12.40
2022-09-24T03:46:20.566Z,12.40
2022-09-24T03:48:48.105Z,12.50
2022-09-24T03:51:21.588Z,12.50
2022-09-24T03:53:48.930Z,12.50
2022-09-24T03:56:16.296Z,12.50
2022-09-24T03:58:47.244Z,12.50
2022-09-24T04:01:15.871Z,12.40
2022-09-24T04:03:43.158Z,12.40
2022-09-24T04:06:10.415Z,12.40
2022-09-24T04:08:37.730Z,12.40
2022-09-24T04:11:05.166Z,12.50
2022-09-24T04:13:32.475Z,12.40
2022-09-24T04:16:04.294Z,12.40
2022-09-24T04:18:35.678Z,12.30
2022-09-24T04:21:05.961Z,12.30
2022-09-24T04:23:33.221Z,12.30
2022-09-24T04:26:02.198Z,12.20
2022-09-24T04:28:30.736Z,12.20
2022-09-24T04:30:58.492Z,12.20
2022-09-24T04:33:26.028Z,12.20
2022-09-24T04:35:53.335Z,12.20
2022-09-24T04:38:21.275Z,12.20
2022-09-24T04:40:49.598Z,12.20
2022-09-24T04:43:19.010Z,12.20
2022-09-24T04:45:46.532Z,12.20
2022-09-24T04:48:14.357Z,12.20
2022-09-24T04:50:45.773Z,12.20
2022-09-24T04:53:14.166Z,12.20
2022-09-24T04:55:41.906Z,12.20
2022-09-24T04:58:10.113Z,12.20
2022-09-24T05:00:37.748Z,12.20
2022-09-24T05:03:05.628Z,12.20
2022-09-24T05:05:34.415Z,12.20
2022-09-24T05:08:02.391Z,12.20
2022-09-24T05:10:34.534Z,12.20
2022-09-24T05:13:02.249Z,12.20
2022-09-24T05:15:29.651Z,12.20
2022-09-24T05:17:57.290Z,12.20
2022-09-24T05:20:25.263Z,12.20
2022-09-24T05:22:52.697Z,12.20
2022-09-24T05:25:21.538Z,12.30
2022-09-24T05:27:51.139Z,12.30
2022-09-24T05:30:20.667Z,12.30
2022-09-24T05:32:51.917Z,12.30
2022-09-24T05:35:21.034Z,12.30
2022-09-24T05:37:49.583Z,12.30
2022-09-24T05:40:35.802Z,12.30
2022-09-24T05:43:04.530Z,12.30
2022-09-24T05:45:32.647Z,12.40
2022-09-24T05:48:00.106Z,12.40
2022-09-24T05:50:27.883Z,12.40
2022-09-24T05:52:55.474Z,12.40
2022-09-24T05:55:22.858Z,12.40
2022-09-24T05:57:50.132Z,12.50
2022-09-24T06:00:17.371Z,12.50
2022-09-24T06:02:44.827Z,12.50
2022-09-24T06:05:12.862Z,12.50
2022-09-24T06:07:40.137Z,12.60
2022-09-24T06:10:08.182Z,12.60
2022-09-24T06:12:35.669Z,12.70
2022-09-24T06:15:03.447Z,12.70
2022-09-24T06:17:31.821Z,12.70
2022-09-24T06:19:59.306Z,12.80
2022-09-24T06:22:28.940Z,12.90
2022-09-24T06:24:56.558Z,12.90
2022-09-24T06:27:24.263Z,13.00
2022-09-24T06:29:51.538Z,13.00
2022-09-24T06:32:19.707Z,13.10
2022-09-24T06:34:47.484Z,13.20
2022-09-24T06:37:14.789Z,13.20
2022-09-24T06:39:42.598Z,13.30
2022-09-24T06:42:09.913Z,13.30
2022-09-24T06:44:37.278Z,13.30
2022-09-24T06:47:04.722Z,13.40
2022-09-24T06:49:34.228Z,13.40
2022-09-24T06:52:02.488Z,13.50
2022-09-24T06:54:29.826Z,13.50
2022-09-24T06:56:57.145Z,13.60
2022-09-24T06:59:24.422Z,13.70
2022-09-24T07:01:52.317Z,13.80
2022-09-24T07:04:19.764Z,13.90
2022-09-24T07:07:05.363Z,14.00
2022-09-24T07:09:32.653Z,14.10
2022-09-24T07:12:04.674Z,14.40
2022-09-24T07:14:31.976Z,14.60
2022-09-24T07:16:59.236Z,14.70
2022-09-24T07:19:26.465Z,14.90
2022-09-24T07:21:53.735Z,15.00
2022-09-24T07:24:20.942Z,15.20
2022-09-24T07:26:48.214Z,15.50
2022-09-24T07:29:16.090Z,15.70
2022-09-24T07:31:43.409Z,15.80
2022-09-24T07:34:10.764Z,16.10
2022-09-24T07:36:38.035Z,16.30
2022-09-24T07:39:05.468Z,16.40
2022-09-24T07:41:37.392Z,16.40
2022-09-24T07:44:08.292Z,16.50
2022-09-24T07:46:35.930Z,16.40
2022-09-24T07:49:03.801Z,16.40
2022-09-24T07:51:31.174Z,16.50
2022-09-24T07:53:58.528Z,16.40
2022-09-24T07:56:26.076Z,16.30
2022-09-24T07:58:53.886Z,16.30
2022-09-24T08:01:22.401Z,16.20
2022-09-24T08:03:51.879Z,16.30
2022-09-24T08:06:22.540Z,16.30
2022-09-24T08:08:52.506Z,16.30
2022-09-24T08:11:21.367Z,16.40
2022-09-24T08:13:48.727Z,16.40
2022-09-24T08:16:16.708Z,16.40
2022-09-24T08:18:44.098Z,16.50
2022-09-24T08:21:13.236Z,16.40
2022-09-24T08:23:41.019Z,16.40
2022-09-24T08:26:09.770Z,16.30
2022-09-24T08:28:37.884Z,16.20
2022-09-24T08:31:08.995Z,16.20
2022-09-24T08:33:37.179Z,16.00
2022-09-24T08:36:07.646Z,15.80
2022-09-24T08:38:35.111Z,15.70
2022-09-24T08:41:14.468Z,15.70
2022-09-24T08:44:02.298Z,15.80
2022-09-24T08:46:55.196Z,15.90
2022-09-24T08:49:27.457Z,15.90
2022-09-24T08:52:15.334Z,16.00
2022-09-24T08:54:44.867Z,16.20
2022-09-24T08:57:15.839Z,16.30
2022-09-24T08:59:47.042Z,16.30
2022-09-24T09:02:40.160Z,16.50
2022-09-24T09:05:37.108Z,16.70
2022-09-24T09:08:54.909Z,16.90
2022-09-24T09:11:23.790Z,17.00
2022-09-24T09:14:05.899Z,17.00
2022-09-24T09:16:51.555Z,17.10
2022-09-24T09:19:21.680Z,17.20
2022-09-24T09:21:54.648Z,17.30
2022-09-24T09:24:49.601Z,17.60
2022-09-24T09:27:18.227Z,17.90
2022-09-24T09:29:50.139Z,18.40
2022-09-24T09:32:47.195Z,18.50
2022-09-24T09:35:38.937Z,19.10
2022-09-24T09:38:23.331Z,19.40
2022-09-24T09:41:06.647Z,19.60
2022-09-24T09:43:35.287Z,19.70
2022-09-24T09:46:16.956Z,20.20
2022-09-24T09:48:47.806Z,20.70
2022-09-24T09:51:23.348Z,21.40
2022-09-24T09:53:55.863Z,21.50
2022-09-24T09:56:29.965Z,21.90
2022-09-24T09:59:16.488Z,21.80
2022-09-24T10:01:46.737Z,22.50
2022-09-24T10:04:35.157Z,22.70
2022-09-24T10:07:07.508Z,22.30
2022-09-24T10:09:35.453Z,22.10
2022-09-24T10:12:32.239Z,22.10
2022-09-24T10:15:14.922Z,22.30
2022-09-24T10:17:43.834Z,23.00
2022-09-24T10:20:27.449Z,22.20
2022-09-24T10:23:06.865Z,22.70
2022-09-24T10:25:37.726Z,23.40
2022-09-24T10:28:28.008Z,23.50
2022-09-24T10:31:00.200Z,22.90
2022-09-24T10:33:35.650Z,23.20
2022-09-24T10:36:12.977Z,23.80
2022-09-24T10:38:40.391Z,24.00
2022-09-24T10:41:28.620Z,22.70
2022-09-24T10:43:58.000Z,21.60
2022-09-24T10:47:04.499Z,21.10
2022-09-24T10:49:47.921Z,21.10
2022-09-24T10:52:33.192Z,20.80
2022-09-24T10:55:19.573Z,20.50
2022-09-24T10:58:31.182Z,20.20
2022-09-24T11:01:01.300Z,20.10
2022-09-24T11:04:20.237Z,20.40
2022-09-24T11:07:09.374Z,20.70
2022-09-24T11:10:02.801Z,19.90
2022-09-24T11:13:02.649Z,19.50
2022-09-24T11:16:03.713Z,19.50
2022-09-24T11:18:57.107Z,19.90
2022-09-24T11:21:49.332Z,20.00
2022-09-24T11:24:53.896Z,20.00
2022-09-24T11:27:39.708Z,20.00
2022-09-24T11:30:09.906Z,20.00
2022-09-24T11:32:57.456Z,20.10
2022-09-24T11:36:04.248Z,20.20
2022-09-24T11:38:34.662Z,20.60
2022-09-24T11:41:31.363Z,20.70
2022-09-24T11:44:23.125Z,21.00
2022-09-24T11:47:20.904Z,21.00
2022-09-24T11:50:05.150Z,21.10
2022-09-24T11:52:43.560Z,21.00
2022-09-24T11:55:39.702Z,21.20
2022-09-24T11:58:29.982Z,21.60
2022-09-24T12:01:14.254Z,21.40
2022-09-24T12:03:58.283Z,21.50
2022-09-24T12:06:31.368Z,21.70
2022-09-24T12:09:27.831Z,22.00
2022-09-24T12:12:03.660Z,21.90
2022-09-24T12:14:43.635Z,21.80
2022-09-24T12:17:18.941Z,21.80
2022-09-24T12:19:55.842Z,21.50
2022-09-24T12:22:24.700Z,21.20
2022-09-24T12:24:54.127Z,21.00
2022-09-24T12:27:30.333Z,20.90
2022-09-24T12:30:41.091Z,20.60
2022-09-24T12:33:14.519Z,20.60
2022-09-24T12:36:04.492Z,20.70
2022-09-24T12:38:37.438Z,20.70
2022-09-24T12:41:24.486Z,20.80
2022-09-24T12:43:58.610Z,20.80
2022-09-24T12:46:35.487Z,20.70
2022-09-24T12:49:03.076Z,20.60
2022-09-24T12:51:38.329Z,20.40
2022-09-24T12:54:43.513Z,20.20
2022-09-24T12:57:42.440Z,20.10
2022-09-24T13:00:45.769Z,20.00
2022-09-24T13:03:46.055Z,19.90
2022-09-24T13:06:37.994Z,19.80
2022-09-24T13:09:25.997Z,19.50
2022-09-24T13:12:22.689Z,19.50
2022-09-24T13:15:04.113Z,19.50
2022-09-24T13:17:34.032Z,19.50
2022-09-24T13:20:08.611Z,19.20
2022-09-24T13:22:37.692Z,19.10
2022-09-24T13:25:25.839Z,19.20
2022-09-24T13:27:59.646Z,19.40
2022-09-24T13:30:47.128Z,19.50
2022-09-24T13:33:31.926Z,19.60
2022-09-24T13:36:11.645Z,19.60
2022-09-24T13:39:19.492Z,19.70
2022-09-24T13:42:17.456Z,19.70
2022-09-24T13:44:52.491Z,19.70
2022-09-24T13:47:36.272Z,19.70
2022-09-24T13:50:18.024Z,19.80
2022-09-24T13:52:54.270Z,19.80
2022-09-24T13:55:39.621Z,19.50
2022-09-24T13:58:26.063Z,19.40
2022-09-24T14:00:54.386Z,19.50
2022-09-24T14:03:36.581Z,19.50
2022-09-24T14:06:21.792Z,19.40
2022-09-24T14:08:49.540Z,19.60
2022-09-24T14:11:24.706Z,19.60
2022-09-24T14:13:55.040Z,19.60
2022-09-24T14:16:24.339Z,19.50
2022-09-24T14:19:03.195Z,19.20
2022-09-24T14:21:44.011Z,19.00
2022-09-24T14:24:42.922Z,18.80
2022-09-24T14:27:17.527Z,18.80
2022-09-24T14:29:49.744Z,18.70
2022-09-24T14:32:28.083Z,18.50
2022-09-24T14:34:59.331Z,18.20
2022-09-24T14:37:32.208Z,18.10
2022-09-24T14:40:07.071Z,18.00
2022-09-24T14:43:03.284Z,17.90
2022-09-24T14:45:37.758Z,17.90
2022-09-24T14:48:17.275Z,17.90
2022-09-24T14:50:44.519Z,17.80
2022-09-24T14:53:24.416Z,17.70
2022-09-24T14:55:52.003Z,17.60
2022-09-24T14:58:28.500Z,17.30
2022-09-24T15:00:58.932Z,17.00
2022-09-24T15:03:56.398Z,16.80
2022-09-24T15:06:28.867Z,16.60
2022-09-24T15:09:04.997Z,16.70
2022-09-24T15:11:37.311Z,16.70
2022-09-24T15:14:16.844Z,16.70
2022-09-24T15:16:47.022Z,16.60
2022-09-24T15:19:23.347Z,16.40
2022-09-24T15:21:52.862Z,16.30
2022-09-24T15:24:21.113Z,16.30
2022-09-24T15:27:03.870Z,16.20
2022-09-24T15:29:31.674Z,16.20
2022-09-24T15:31:59.362Z,16.20
2022-09-24T15:34:27.390Z,16.20
2022-09-24T15:36:59.002Z,16.10
2022-09-24T15:39:27.972Z,16.00
2022-09-24T15:41:55.189Z,15.90
2022-09-24T15:44:29.743Z,15.80
2022-09-24T15:47:00.427Z,15.70
2022-09-24T15:49:27.719Z,15.60
2022-09-24T15:52:15.721Z,15.60
2022-09-24T15:54:43.007Z,15.50
2022-09-24T15:57:12.727Z,15.50
2022-09-24T15:59:40.401Z,15.50
2022-09-24T16:02:17.384Z,15.40
2022-09-24T16:04:44.795Z,15.40
2022-09-24T16:07:12.171Z,15.40
2022-09-24T16:09:39.725Z,15.30
2022-09-24T16:12:07.350Z,15.20
2022-09-24T16:14:34.652Z,15.20
2022-09-24T16:17:01.979Z,15.10
2022-09-24T16:19:29.517Z,15.00
2022-09-24T16:21:56.786Z,15.00
2022-09-24T16:24:24.033Z,15.00
2022-09-24T16:26:51.553Z,15.10
2022-09-24T16:29:19.873Z,15.10
2022-09-24T16:31:47.505Z,15.00
2022-09-24T16:34:14.913Z,15.10
2022-09-24T16:36:42.221Z,15.00
2022-09-24T16:39:09.624Z,15.00
2022-09-24T16:41:37.898Z,15.00
2022-09-24T16:44:05.255Z,15.00
2022-09-24T16:46:32.699Z,15.00
2022-09-24T16:48:59.998Z,15.00
2022-09-24T16:51:27.344Z,15.00
2022-09-24T16:53:55.957Z,15.00
2022-09-24T16:56:23.564Z,14.90
2022-09-24T16:58:51.460Z,14.90
2022-09-24T17:01:21.039Z,14.90
2022-09-24T17:03:55.756Z,14.90
2022-09-24T17:06:26.351Z,14.80
2022-09-24T17:09:12.112Z,14.80
2022-09-24T17:11:42.624Z,14.80
2022-09-24T17:14:13.099Z,14.70
2022-09-24T17:16:41.347Z,14.70
2022-09-24T17:19:12.520Z,14.70
2022-09-24T17:21:42.338Z,14.60
2022-09-24T17:24:10.040Z,14.60
2022-09-24T17:26:38.208Z,14.60
2022-09-24T17:29:05.680Z,14.60
2022-09-24T17:31:33.160Z,14.50
2022-09-24T17:34:02.962Z,14.50
2022-09-24T17:36:32.427Z,14.60
2022-09-24T17:39:01.022Z,14.60
2022-09-24T17:41:29.145Z,14.50
2022-09-24T17:43:59.799Z,14.50
2022-09-24T17:46:29.870Z,14.50
2022-09-24T17:48:59.428Z,14.50
2022-09-24T17:51:36.174Z,14.40
2022-09-24T17:54:06.828Z,14.40
2022-09-24T17:56:38.682Z,14.40
2022-09-24T17:59:07.972Z,14.40
2022-09-24T18:01:37.399Z,14.40
2022-09-24T18:04:07.308Z,14.40
2022-09-24T18:06:37.593Z,14.40
2022-09-24T18:09:05.482Z,14.30
2022-09-24T18:11:37.793Z,14.30
2022-09-24T18:14:05.323Z,14.30
2022-09-24T18:16:33.463Z,14.30
2022-09-24T18:19:02.374Z,14.20
2022-09-24T18:21:30.873Z,14.20
2022-09-24T18:24:00.259Z,14.20
2022-09-24T18:26:32.636Z,14.10
2022-09-24T18:29:03.999Z,14.10
2022-09-24T18:31:32.366Z,14.10
2022-09-24T18:34:06.048Z,14.10
2022-09-24T18:36:35.428Z,14.00
2022-09-24T18:39:04.136Z,13.90
2022-09-24T18:41:32.036Z,13.80
2022-09-24T18:44:00.103Z,13.80
2022-09-24T18:46:29.767Z,13.80
2022-09-24T18:48:58.374Z,13.70
2022-09-24T18:51:34.159Z,13.70
2022-09-24T18:54:04.082Z,13.70
2022-09-24T18:56:31.687Z,13.60
2022-09-24T18:59:21.113Z,13.60
2022-09-24T19:01:50.629Z,13.50
2022-09-24T19:04:19.038Z,13.50
2022-09-24T19:06:51.747Z,13.50
2022-09-24T19:09:20.247Z,13.50
2022-09-24T19:11:48.810Z,13.50
2022-09-24T19:14:18.326Z,13.50
2022-09-24T19:16:45.926Z,13.40
2022-09-24T19:19:13.330Z,13.40
2022-09-24T19:21:42.104Z,13.40
2022-09-24T19:24:09.904Z,13.50
2022-09-24T19:26:37.968Z,13.50
2022-09-24T19:29:05.719Z,13.50
2022-09-24T19:31:38.999Z,13.50
2022-09-24T19:34:08.430Z,13.50
2022-09-24T19:36:42.760Z,13.50
2022-09-24T19:39:12.912Z,13.40
2022-09-24T19:41:40.266Z,13.40
2022-09-24T19:44:09.039Z,13.40
2022-09-24T19:46:38.295Z,13.40
2022-09-24T19:49:06.252Z,13.40
2022-09-24T19:51:34.769Z,13.40
2022-09-24T19:54:06.377Z,13.40
2022-09-24T19:56:34.532Z,13.40
2022-09-24T19:59:02.739Z,13.40
2022-09-24T20:01:31.739Z,13.40
2022-09-24T20:04:02.038Z,13.40
2022-09-24T20:06:33.560Z,13.40
2022-09-24T20:09:01.073Z,13.40
2022-09-24T20:11:32.134Z,13.40
2022-09-24T20:14:00.205Z,13.40
2022-09-24T20:16:30.934Z,13.50
2022-09-24T20:18:59.137Z,13.50
2022-09-24T20:21:28.309Z,13.50
2022-09-24T20:23:57.857Z,13.50
2022-09-24T20:26:44.570Z,13.50
2022-09-24T20:29:13.642Z,13.50
2022-09-24T20:31:51.761Z,13.50
2022-09-24T20:34:24.880Z,13.50
2022-09-24T20:36:52.383Z,13.40
2022-09-24T20:39:22.773Z,13.40
2022-09-24T20:41:50.152Z,13.40
2022-09-24T20:44:18.027Z,13.30
2022-09-24T20:46:45.325Z,13.30
2022-09-24T20:49:24.406Z,13.30
2022-09-24T20:51:57.025Z,13.30
2022-09-24T20:54:26.351Z,13.40
2022-09-24T20:56:53.723Z,13.40
2022-09-24T20:59:21.010Z,13.40
2022-09-24T21:01:49.417Z,13.40
2022-09-24T21:04:19.789Z,13.40
2022-09-24T21:06:48.117Z,13.40
2022-09-24T21:09:17.012Z,13.40
2022-09-24T21:11:44.315Z,13.40
2022-09-24T21:14:12.248Z,13.40
2022-09-24T21:16:39.664Z,13.40
2022-09-24T21:19:07.906Z,13.40
2022-09-24T21:21:38.961Z,13.40
2022-09-24T21:24:12.376Z,13.40
2022-09-24T21:26:40.482Z,13.40
2022-09-24T21:29:12.931Z,13.40
2022-09-24T21:31:41.963Z,13.30
2022-09-24T21:34:10.677Z,13.30
2022-09-24T21:36:44.297Z,13.30
2022-09-24T21:39:22.803Z,13.40
2022-09-24T21:41:51.233Z,13.30
2022-09-24T21:44:19.197Z,13.30
2022-09-24T21:46:50.794Z,13.30
2022-09-24T21:49:19.366Z,13.30
2022-09-24T21:51:46.962Z,13.30
2022-09-24T21:54:16.887Z,13.20
2022-09-24T21:56:44.905Z,13.30
2022-09-24T21:59:30.699Z,13.20
2022-09-24T22:01:58.864Z,13.20
2022-09-24T22:04:27.578Z,13.20
2022-09-24T22:06:54.934Z,13.20
2022-09-24T22:09:22.315Z,13.20
2022-09-24T22:11:52.483Z,13.20
2022-09-24T22:14:19.866Z,13.20
2022-09-24T22:16:47.224Z,13.20
2022-09-24T22:19:14.793Z,13.20
2022-09-24T22:21:42.084Z,13.20
2022-09-24T22:24:09.728Z,13.20
2022-09-24T22:26:37.005Z,13.20
2022-09-24T22:29:04.345Z,13.20
2022-09-24T22:31:32.036Z,13.20
2022-09-24T22:34:17.938Z,13.20
2022-09-24T22:36:45.200Z,13.20
2022-09-24T22:39:12.487Z,13.10
2022-09-24T22:41:42.870Z,13.10
2022-09-24T22:44:11.503Z,13.10
2022-09-24T22:46:39.482Z,13.10
2022-09-24T22:49:07.343Z,13.00
2022-09-24T22:51:35.293Z,13.00
2022-09-24T22:54:02.522Z,13.00
2022-09-24T22:56:30.013Z,13.00
2022-09-24T22:58:59.850Z,13.00
2022-09-24T23:01:31.243Z,13.00
2022-09-24T23:03:59.377Z,13.00
2022-09-24T23:06:27.590Z,12.90
2022-09-24T23:08:55.891Z,12.90
2022-09-24T23:11:29.130Z,12.90
2022-09-24T23:13:59.254Z,12.90
2022-09-24T23:16:29.124Z,12.90
2022-09-24T23:18:59.055Z,12.80
2022-09-24T23:21:28.623Z,12.80
2022-09-24T23:23:58.003Z,12.70
2022-09-24T23:26:26.558Z,12.70
2022-09-24T23:28:55.855Z,12.70
2022-09-24T23:31:26.038Z,12.60
2022-09-24T23:33:58.179Z,12.50
2022-09-24T23:36:26.950Z,12.60
2022-09-24T23:38:54.423Z,12.50
2022-09-24T23:41:21.769Z,12.50
2022-09-24T23:43:49.692Z,12.50
2022-09-24T23:46:17.760Z,12.50
2022-09-24T23:48:45.091Z,12.50
2022-09-24T23:51:12.497Z,12.40
2022-09-24T23:53:41.259Z,12.50
2022-09-24T23:56:08.722Z,12.50
2022-09-24T23:58:36.491Z,12.50
